aviador You're here:

KGZH Decoded Metar

EVERGREEN in AL, USA
Report Time2017-11-21 05:53:00
UTC Time2017-11-21 06:13:47
Flight Rules vfr VFR
WindCalm
Visibility9999 m
Phenomena:N/A
Clouds:N/A
Expected CloudBase > 400 ft AGL from Temp-Dew spread
CeilingNone
Temp02°C (ISA -12)
Dew Point01°C (93% RH)
AAT0.2°C
QNH1021 hPa
Density Alt-1,444 ft
Elevation256 ft
Report Wrong Elevation
Raw Report
METAR KGZH 210553Z AUTO 00000KT 9SM CLR 02/01 A3014 RMK AO2 SLP205
T00220011 10078 20022 401501011 57013=

Extra information for KGZH:More info

Metar Taf Metar & Taf Last 4 Metars F.Rules Stats Wind Profile Meteogram Temp Stats Airport Information Weather charts Add Link Nearby VenuesMetar ALERT Operation Metar Decoded Social comments

AIRNAV info for KGZH